createdAt,value
2023-01-26T10:06:41.510Z,2.10
2023-01-26T10:09:33.233Z,2.29
2023-01-26T10:12:31.136Z,2.41
2023-01-26T10:15:38.973Z,2.57
2023-01-26T10:38:51.757Z,2.50
2023-01-26T10:41:27.448Z,2.49
2023-01-26T10:44:23.313Z,2.60
2023-01-26T10:47:21.378Z,2.70
2023-01-26T10:49:49.371Z,2.82
2023-01-26T10:52:27.834Z,2.73
2023-01-26T10:55:21.567Z,2.87
2023-01-26T10:57:49.176Z,2.86
2023-01-26T11:00:36.509Z,2.71
2023-01-26T11:03:19.930Z,2.82
2023-01-26T11:06:04.837Z,2.82
2023-01-26T11:08:39.759Z,2.82
2023-01-26T11:11:23.815Z,2.95
2023-01-26T11:14:18.802Z,2.95
2023-01-26T11:17:25.252Z,2.76
2023-01-26T11:20:46.785Z,2.74
2023-01-26T11:24:10.190Z,2.82
2023-01-26T11:27:18.176Z,2.89
2023-01-26T11:31:16.311Z,2.85
2023-01-26T11:35:01.578Z,2.80
2023-01-26T11:38:22.711Z,2.90
2023-01-26T11:41:51.521Z,2.87
2023-01-26T11:45:16.924Z,2.69
2023-01-26T11:48:42.924Z,2.98
2023-01-26T11:51:56.192Z,2.68
2023-01-26T11:55:02.880Z,2.91
2023-01-26T11:57:59.743Z,2.85
2023-01-26T12:00:48.893Z,2.79
2023-01-26T12:03:41.079Z,2.75
2023-01-26T12:06:26.992Z,2.71
2023-01-26T12:09:23.123Z,2.98
2023-01-26T12:56:42.510Z,2.60
2023-01-26T12:59:46.475Z,2.76
2023-01-26T13:02:30.510Z,2.78
2023-01-26T13:05:04.194Z,2.70
2023-01-26T13:07:40.445Z,2.83
2023-01-26T13:10:18.028Z,2.90
2023-01-26T13:13:29.883Z,2.85
2023-01-26T13:16:17.275Z,2.81
2023-01-26T13:19:03.205Z,2.72
2023-01-26T13:21:39.259Z,2.94
2023-01-26T13:24:18.706Z,2.93
2023-01-26T13:27:44.119Z,2.84
2023-01-26T13:30:29.545Z,2.62
